Other Surface Observations
Issued by NWS Great Falls, MT

Home | Current Version | Previous Version | Text Only | Print | Product List | Glossary On
Versions: 1 2 3 4 5 6 7 8 9 10 11 12 13 14 15 16 17 18 19 20 21 22 23 24 25 26 27 28 29 30 31 32 33 34 35 36 37 38 39 40 41 42 43 44 45 46 47 48 49 50
774
SXUS55 KTFX 280718
OSOTFX

AREA AWOS OBSERVATIONS
NATIONAL WEATHER SERVICE GREAT FALLS MT
0118 AM MDT Thu Jul 28 2016

METAR K7S0 280715Z AUTO 00000KT 10SM 18/12 A3016
METAR KRPX 280715Z AUTO 00000KT 10SM 16/13 A3012
METAR KS01 280655Z AUTO 21009KT 10SM 15/15 A3023



USA.gov is the U.S. government's official web portal to all federal, state and local government web resources and services.